sensor_id;sensor_type;location;lat;lon;timestamp;temperature;humidity
18575;DHT22;9417;16.484;102.872;2023-09-30T00:00:05;26.00;99.90
18575;DHT22;9417;16.484;102.872;2023-09-30T00:02:13;26.00;99.90
18575;DHT22;9417;16.484;102.872;2023-09-30T00:04:21;26.00;99.90
18575;DHT22;9417;16.484;102.872;2023-09-30T00:06:29;26.00;99.90
18575;DHT22;9417;16.484;102.872;2023-09-30T00:08:36;26.00;99.90
18575;DHT22;9417;16.484;102.872;2023-09-30T00:10:48;25.90;99.90
18575;DHT22;9417;16.484;102.872;2023-09-30T00:12:55;25.90;99.90
18575;DHT22;9417;16.484;102.872;2023-09-30T00:15:04;25.90;99.90
18575;DHT22;9417;16.484;102.872;2023-09-30T00:17:12;25.90;99.90
18575;DHT22;9417;16.484;102.872;2023-09-30T00:19:19;25.90;99.90
18575;DHT22;9417;16.484;102.872;2023-09-30T00:21:28;26.00;99.90
18575;DHT22;9417;16.484;102.872;2023-09-30T00:23:36;26.00;99.90
18575;DHT22;9417;16.484;102.872;2023-09-30T00:25:43;26.00;99.90
18575;DHT22;9417;16.484;102.872;2023-09-30T00:27:53;26.00;99.90
18575;DHT22;9417;16.484;102.872;2023-09-30T00:30:01;26.00;99.90
18575;DHT22;9417;16.484;102.872;2023-09-30T00:32:10;26.00;99.90
18575;DHT22;9417;16.484;102.872;2023-09-30T00:34:18;26.00;99.90
18575;DHT22;9417;16.484;102.872;2023-09-30T00:36:26;26.00;99.90
18575;DHT22;9417;16.484;102.872;2023-09-30T00:38:34;26.00;99.90
18575;DHT22;9417;16.484;102.872;2023-09-30T00:40:48;26.00;99.90
18575;DHT22;9417;16.484;102.872;2023-09-30T00:42:58;26.10;99.90
18575;DHT22;9417;16.484;102.872;2023-09-30T00:45:06;26.10;99.90
18575;DHT22;9417;16.484;102.872;2023-09-30T00:47:15;26.10;99.90
18575;DHT22;9417;16.484;102.872;2023-09-30T00:49:25;26.10;99.90
18575;DHT22;9417;16.484;102.872;2023-09-30T00:51:33;26.10;99.90
18575;DHT22;9417;16.484;102.872;2023-09-30T00:53:42;26.10;99.90
18575;DHT22;9417;16.484;102.872;2023-09-30T00:55:51;26.00;99.90
18575;DHT22;9417;16.484;102.872;2023-09-30T00:58:01;26.00;99.90
18575;DHT22;9417;16.484;102.872;2023-09-30T01:00:10;26.00;99.90
18575;DHT22;9417;16.484;102.872;2023-09-30T01:02:20;26.00;99.90
18575;DHT22;9417;16.484;102.872;2023-09-30T01:04:30;25.90;99.90
18575;DHT22;9417;16.484;102.872;2023-09-30T01:06:38;25.90;99.90
18575;DHT22;9417;16.484;102.872;2023-09-30T01:08:46;25.90;99.90
18575;DHT22;9417;16.484;102.872;2023-09-30T01:10:54;26.00;99.90
18575;DHT22;9417;16.484;102.872;2023-09-30T01:13:05;26.00;99.90
18575;DHT22;9417;16.484;102.872;2023-09-30T01:15:12;26.10;99.90
18575;DHT22;9417;16.484;102.872;2023-09-30T01:17:20;26.10;99.90
18575;DHT22;9417;16.484;102.872;2023-09-30T01:19:29;26.20;99.90
18575;DHT22;9417;16.484;102.872;2023-09-30T01:21:39;26.20;99.90
18575;DHT22;9417;16.484;102.872;2023-09-30T01:23:47;26.30;99.90
18575;DHT22;9417;16.484;102.872;2023-09-30T01:25:55;26.20;99.90
18575;DHT22;9417;16.484;102.872;2023-09-30T01:28:08;26.30;99.90
18575;DHT22;9417;16.484;102.872;2023-09-30T01:30:18;26.30;99.90
18575;DHT22;9417;16.484;102.872;2023-09-30T01:32:27;26.30;99.90
18575;DHT22;9417;16.484;102.872;2023-09-30T01:34:36;26.30;99.90
18575;DHT22;9417;16.484;102.872;2023-09-30T01:36:48;26.30;99.90
18575;DHT22;9417;16.484;102.872;2023-09-30T01:38:56;26.40;99.90
18575;DHT22;9417;16.484;102.872;2023-09-30T01:41:04;26.40;99.90
18575;DHT22;9417;16.484;102.872;2023-09-30T01:43:12;26.40;99.90
18575;DHT22;9417;16.484;102.872;2023-09-30T01:45:20;26.50;99.90
18575;DHT22;9417;16.484;102.872;2023-09-30T01:47:28;26.50;99.90
18575;DHT22;9417;16.484;102.872;2023-09-30T01:49:35;26.60;99.90
18575;DHT22;9417;16.484;102.872;2023-09-30T01:51:43;26.60;99.90
18575;DHT22;9417;16.484;102.872;2023-09-30T01:53:58;26.70;99.90
18575;DHT22;9417;16.484;102.872;2023-09-30T01:56:06;26.70;99.90
18575;DHT22;9417;16.484;102.872;2023-09-30T01:58:14;26.70;99.90
18575;DHT22;9417;16.484;102.872;2023-09-30T02:00:22;26.80;99.90
18575;DHT22;9417;16.484;102.872;2023-09-30T02:02:30;26.80;99.90
18575;DHT22;9417;16.484;102.872;2023-09-30T02:04:38;26.90;99.90
18575;DHT22;9417;16.484;102.872;2023-09-30T02:06:46;26.90;99.90
18575;DHT22;9417;16.484;102.872;2023-09-30T02:08:56;26.90;99.90
18575;DHT22;9417;16.484;102.872;2023-09-30T02:11:04;26.90;99.90
18575;DHT22;9417;16.484;102.872;2023-09-30T02:13:12;27.00;99.90
18575;DHT22;9417;16.484;102.872;2023-09-30T02:15:23;27.00;99.90
18575;DHT22;9417;16.484;102.872;2023-09-30T02:17:31;27.00;99.90
18575;DHT22;9417;16.484;102.872;2023-09-30T02:19:40;27.00;99.90
18575;DHT22;9417;16.484;102.872;2023-09-30T02:21:49;27.00;99.90
18575;DHT22;9417;16.484;102.872;2023-09-30T02:23:59;27.00;99.90
18575;DHT22;9417;16.484;102.872;2023-09-30T02:26:07;27.10;99.90
18575;DHT22;9417;16.484;102.872;2023-09-30T02:28:15;27.10;99.90
18575;DHT22;9417;16.484;102.872;2023-09-30T02:30:23;27.10;99.90
18575;DHT22;9417;16.484;102.872;2023-09-30T02:32:33;27.20;99.90
18575;DHT22;9417;16.484;102.872;2023-09-30T02:34:42;27.20;99.90
18575;DHT22;9417;16.484;102.872;2023-09-30T02:36:50;27.30;99.90
18575;DHT22;9417;16.484;102.872;2023-09-30T02:39:02;27.30;99.90
18575;DHT22;9417;16.484;102.872;2023-09-30T02:41:10;27.40;99.90
18575;DHT22;9417;16.484;102.872;2023-09-30T02:43:19;27.60;99.90
18575;DHT22;9417;16.484;102.872;2023-09-30T02:45:26;27.70;99.90
18575;DHT22;9417;16.484;102.872;2023-09-30T02:47:35;27.70;99.90
18575;DHT22;9417;16.484;102.872;2023-09-30T02:49:42;27.80;99.90
18575;DHT22;9417;16.484;102.872;2023-09-30T02:51:49;27.90;99.90
18575;DHT22;9417;16.484;102.872;2023-09-30T02:53:57;28.10;99.90
18575;DHT22;9417;16.484;102.872;2023-09-30T02:56:07;28.10;99.90
18575;DHT22;9417;16.484;102.872;2023-09-30T02:58:15;28.20;99.90
18575;DHT22;9417;16.484;102.872;2023-09-30T03:00:23;28.30;99.90
18575;DHT22;9417;16.484;102.872;2023-09-30T03:02:31;28.30;99.90
18575;DHT22;9417;16.484;102.872;2023-09-30T03:04:40;28.20;99.90
18575;DHT22;9417;16.484;102.872;2023-09-30T03:06:48;28.20;99.90
18575;DHT22;9417;16.484;102.872;2023-09-30T03:08:56;28.10;99.70
18575;DHT22;9417;16.484;102.872;2023-09-30T03:11:06;28.00;99.90
18575;DHT22;9417;16.484;102.872;2023-09-30T03:13:13;28.00;99.90
18575;DHT22;9417;16.484;102.872;2023-09-30T03:15:23;28.00;99.90
18575;DHT22;9417;16.484;102.872;2023-09-30T03:17:32;28.00;99.90
18575;DHT22;9417;16.484;102.872;2023-09-30T03:19:41;28.00;99.90
18575;DHT22;9417;16.484;102.872;2023-09-30T03:21:49;28.00;99.90
18575;DHT22;9417;16.484;102.872;2023-09-30T03:23:57;28.00;99.90
18575;DHT22;9417;16.484;102.872;2023-09-30T03:26:07;28.00;99.90
18575;DHT22;9417;16.484;102.872;2023-09-30T03:28:15;27.90;99.90
18575;DHT22;9417;16.484;102.872;2023-09-30T03:30:23;28.00;99.90
18575;DHT22;9417;16.484;102.872;2023-09-30T03:32:31;28.10;99.90
18575;DHT22;9417;16.484;102.872;2023-09-30T03:34:40;28.20;99.90
18575;DHT22;9417;16.484;102.872;2023-09-30T03:36:51;28.30;99.90
18575;DHT22;9417;16.484;102.872;2023-09-30T03:39:04;28.40;99.90
18575;DHT22;9417;16.484;102.872;2023-09-30T03:41:15;28.50;99.90
18575;DHT22;9417;16.484;102.872;2023-09-30T03:43:26;28.60;99.90
18575;DHT22;9417;16.484;102.872;2023-09-30T03:45:33;28.70;99.60
18575;DHT22;9417;16.484;102.872;2023-09-30T03:47:43;28.80;99.00
18575;DHT22;9417;16.484;102.872;2023-09-30T03:49:50;28.80;98.00
18575;DHT22;9417;16.484;102.872;2023-09-30T03:51:59;28.90;97.10
18575;DHT22;9417;16.484;102.872;2023-09-30T03:54:07;28.90;95.90
18575;DHT22;9417;16.484;102.872;2023-09-30T03:56:18;28.90;95.40
18575;DHT22;9417;16.484;102.872;2023-09-30T03:58:27;28.90;95.90
18575;DHT22;9417;16.484;102.872;2023-09-30T04:00:35;28.80;95.80
18575;DHT22;9417;16.484;102.872;2023-09-30T04:02:44;28.80;96.90
18575;DHT22;9417;16.484;102.872;2023-09-30T04:04:55;28.80;97.40
18575;DHT22;9417;16.484;102.872;2023-09-30T04:07:04;28.90;98.30
18575;DHT22;9417;16.484;102.872;2023-09-30T04:09:15;29.00;98.10
18575;DHT22;9417;16.484;102.872;2023-09-30T04:11:25;29.00;96.90
18575;DHT22;9417;16.484;102.872;2023-09-30T04:13:33;29.00;95.00
18575;DHT22;9417;16.484;102.872;2023-09-30T04:15:41;29.20;94.60
18575;DHT22;9417;16.484;102.872;2023-09-30T04:17:53;29.20;94.40
18575;DHT22;9417;16.484;102.872;2023-09-30T04:20:01;29.20;93.80
18575;DHT22;9417;16.484;102.872;2023-09-30T04:22:10;29.30;93.90
18575;DHT22;9417;16.484;102.872;2023-09-30T04:24:18;29.30;93.30
18575;DHT22;9417;16.484;102.872;2023-09-30T04:26:29;29.30;93.50
18575;DHT22;9417;16.484;102.872;2023-09-30T04:28:36;29.30;92.90
18575;DHT22;9417;16.484;102.872;2023-09-30T04:30:44;29.30;92.30
18575;DHT22;9417;16.484;102.872;2023-09-30T04:32:52;29.30;92.00
18575;DHT22;9417;16.484;102.872;2023-09-30T04:35:02;29.20;91.70
18575;DHT22;9417;16.484;102.872;2023-09-30T04:37:09;29.30;92.30
18575;DHT22;9417;16.484;102.872;2023-09-30T04:39:17;29.20;92.30
18575;DHT22;9417;16.484;102.872;2023-09-30T04:41:27;29.20;92.90
18575;DHT22;9417;16.484;102.872;2023-09-30T04:43:35;29.20;92.20
18575;DHT22;9417;16.484;102.872;2023-09-30T04:45:45;29.20;91.50
18575;DHT22;9417;16.484;102.872;2023-09-30T04:47:55;29.20;91.60
18575;DHT22;9417;16.484;102.872;2023-09-30T04:50:03;29.30;92.20
18575;DHT22;9417;16.484;102.872;2023-09-30T04:52:10;29.20;93.70
18575;DHT22;9417;16.484;102.872;2023-09-30T04:54:18;29.30;94.20
18575;DHT22;9417;16.484;102.872;2023-09-30T04:56:28;29.30;94.70
18575;DHT22;9417;16.484;102.872;2023-09-30T04:58:36;29.40;93.90
18575;DHT22;9417;16.484;102.872;2023-09-30T05:00:44;29.70;93.50
18575;DHT22;9417;16.484;102.872;2023-09-30T05:02:52;29.80;91.60
18575;DHT22;9417;16.484;102.872;2023-09-30T05:05:00;30.00;89.90
18575;DHT22;9417;16.484;102.872;2023-09-30T05:07:06;30.20;88.20
18575;DHT22;9417;16.484;102.872;2023-09-30T05:09:16;30.00;88.60
18575;DHT22;9417;16.484;102.872;2023-09-30T05:11:24;30.10;84.30
18575;DHT22;9417;16.484;102.872;2023-09-30T05:13:33;30.30;89.60
18575;DHT22;9417;16.484;102.872;2023-09-30T05:15:41;30.60;86.20
18575;DHT22;9417;16.484;102.872;2023-09-30T05:17:49;30.60;82.80
18575;DHT22;9417;16.484;102.872;2023-09-30T05:19:56;30.70;84.00
18575;DHT22;9417;16.484;102.872;2023-09-30T05:22:04;30.70;86.10
18575;DHT22;9417;16.484;102.872;2023-09-30T05:24:12;30.90;83.30
18575;DHT22;9417;16.484;102.872;2023-09-30T05:26:21;31.00;81.90
18575;DHT22;9417;16.484;102.872;2023-09-30T05:28:28;31.20;83.00
18575;DHT22;9417;16.484;102.872;2023-09-30T05:30:38;31.00;81.60
18575;DHT22;9417;16.484;102.872;2023-09-30T05:32:46;30.80;80.90
18575;DHT22;9417;16.484;102.872;2023-09-30T05:34:57;30.90;82.00
18575;DHT22;9417;16.484;102.872;2023-09-30T05:37:08;30.80;83.10
18575;DHT22;9417;16.484;102.872;2023-09-30T05:39:17;30.70;81.10
18575;DHT22;9417;16.484;102.872;2023-09-30T05:41:26;30.80;81.80
18575;DHT22;9417;16.484;102.872;2023-09-30T05:43:35;30.80;85.10
18575;DHT22;9417;16.484;102.872;2023-09-30T05:45:45;30.90;81.30
18575;DHT22;9417;16.484;102.872;2023-09-30T05:48:05;31.00;77.20
18575;DHT22;9417;16.484;102.872;2023-09-30T05:50:13;31.20;79.20
18575;DHT22;9417;16.484;102.872;2023-09-30T05:52:21;31.10;81.80
18575;DHT22;9417;16.484;102.872;2023-09-30T05:54:29;31.10;83.20
18575;DHT22;9417;16.484;102.872;2023-09-30T05:56:37;31.10;82.30
18575;DHT22;9417;16.484;102.872;2023-09-30T05:58:47;31.20;81.10
18575;DHT22;9417;16.484;102.872;2023-09-30T06:00:57;31.20;81.00
18575;DHT22;9417;16.484;102.872;2023-09-30T06:03:05;31.20;79.40
18575;DHT22;9417;16.484;102.872;2023-09-30T06:05:14;31.10;80.40
18575;DHT22;9417;16.484;102.872;2023-09-30T06:07:23;31.10;81.50
18575;DHT22;9417;16.484;102.872;2023-09-30T06:09:31;31.10;81.30
18575;DHT22;9417;16.484;102.872;2023-09-30T06:11:39;31.10;81.40
18575;DHT22;9417;16.484;102.872;2023-09-30T06:13:47;31.10;80.50
18575;DHT22;9417;16.484;102.872;2023-09-30T06:15:57;31.30;79.40
18575;DHT22;9417;16.484;102.872;2023-09-30T06:18:06;31.50;79.30
18575;DHT22;9417;16.484;102.872;2023-09-30T06:20:14;31.70;80.20
18575;DHT22;9417;16.484;102.872;2023-09-30T06:22:23;31.70;77.00
18575;DHT22;9417;16.484;102.872;2023-09-30T06:24:32;31.70;78.90
18575;DHT22;9417;16.484;102.872;2023-09-30T06:26:41;31.80;78.80
18575;DHT22;9417;16.484;102.872;2023-09-30T06:28:49;31.70;78.60
18575;DHT22;9417;16.484;102.872;2023-09-30T06:31:01;31.80;78.50
18575;DHT22;9417;16.484;102.872;2023-09-30T06:33:08;31.70;77.90
18575;DHT22;9417;16.484;102.872;2023-09-30T06:35:18;31.80;77.70
18575;DHT22;9417;16.484;102.872;2023-09-30T06:37:30;31.80;77.30
18575;DHT22;9417;16.484;102.872;2023-09-30T06:39:36;31.90;76.50
18575;DHT22;9417;16.484;102.872;2023-09-30T06:41:44;31.80;77.20
18575;DHT22;9417;16.484;102.872;2023-09-30T06:43:52;31.70;77.40
18575;DHT22;9417;16.484;102.872;2023-09-30T06:46:06;31.60;78.70
18575;DHT22;9417;16.484;102.872;2023-09-30T06:48:15;31.70;78.50
18575;DHT22;9417;16.484;102.872;2023-09-30T06:50:23;31.70;78.20
18575;DHT22;9417;16.484;102.872;2023-09-30T06:52:29;31.70;76.70
18575;DHT22;9417;16.484;102.872;2023-09-30T06:54:37;31.70;76.80
18575;DHT22;9417;16.484;102.872;2023-09-30T06:56:45;31.70;77.80
18575;DHT22;9417;16.484;102.872;2023-09-30T06:58:53;31.70;77.90
18575;DHT22;9417;16.484;102.872;2023-09-30T07:01:03;31.40;75.90
18575;DHT22;9417;16.484;102.872;2023-09-30T07:03:12;31.40;77.20
18575;DHT22;9417;16.484;102.872;2023-09-30T07:05:21;31.20;77.20
18575;DHT22;9417;16.484;102.872;2023-09-30T07:07:29;31.30;78.50
18575;DHT22;9417;16.484;102.872;2023-09-30T07:09:37;31.60;76.70
18575;DHT22;9417;16.484;102.872;2023-09-30T07:11:45;31.70;74.30
18575;DHT22;9417;16.484;102.872;2023-09-30T07:13:54;31.90;75.20
18575;DHT22;9417;16.484;102.872;2023-09-30T07:16:04;32.00;75.60
18575;DHT22;9417;16.484;102.872;2023-09-30T07:18:12;31.90;76.50
18575;DHT22;9417;16.484;102.872;2023-09-30T07:20:20;31.90;74.70
18575;DHT22;9417;16.484;102.872;2023-09-30T07:22:28;31.80;77.20
18575;DHT22;9417;16.484;102.872;2023-09-30T07:24:52;31.50;79.50
18575;DHT22;9417;16.484;102.872;2023-09-30T07:27:01;31.40;80.00
18575;DHT22;9417;16.484;102.872;2023-09-30T07:29:27;31.50;78.20
18575;DHT22;9417;16.484;102.872;2023-09-30T07:31:38;31.30;77.10
18575;DHT22;9417;16.484;102.872;2023-09-30T07:33:46;31.30;79.00
18575;DHT22;9417;16.484;102.872;2023-09-30T07:35:54;31.40;79.10
18575;DHT22;9417;16.484;102.872;2023-09-30T07:38:04;31.30;79.00
18575;DHT22;9417;16.484;102.872;2023-09-30T07:40:12;31.20;79.60
18575;DHT22;9417;16.484;102.872;2023-09-30T07:42:20;31.10;81.50
18575;DHT22;9417;16.484;102.872;2023-09-30T07:44:27;31.10;81.30
18575;DHT22;9417;16.484;102.872;2023-09-30T07:46:37;31.00;81.30
18575;DHT22;9417;16.484;102.872;2023-09-30T07:48:45;31.00;81.30
18575;DHT22;9417;16.484;102.872;2023-09-30T07:50:53;31.00;80.80
18575;DHT22;9417;16.484;102.872;2023-09-30T07:53:00;31.10;77.40
18575;DHT22;9417;16.484;102.872;2023-09-30T07:55:09;31.10;80.00
18575;DHT22;9417;16.484;102.872;2023-09-30T07:57:17;31.10;79.40
18575;DHT22;9417;16.484;102.872;2023-09-30T07:59:26;31.20;79.40
18575;DHT22;9417;16.484;102.872;2023-09-30T08:01:34;31.30;80.20
18575;DHT22;9417;16.484;102.872;2023-09-30T08:03:44;31.30;80.70
18575;DHT22;9417;16.484;102.872;2023-09-30T08:05:52;31.30;79.70
18575;DHT22;9417;16.484;102.872;2023-09-30T08:07:59;31.30;80.50
18575;DHT22;9417;16.484;102.872;2023-09-30T08:10:08;31.40;79.30
18575;DHT22;9417;16.484;102.872;2023-09-30T08:12:18;31.40;78.40
18575;DHT22;9417;16.484;102.872;2023-09-30T08:14:26;31.40;77.90
18575;DHT22;9417;16.484;102.872;2023-09-30T08:16:34;31.40;78.00
18575;DHT22;9417;16.484;102.872;2023-09-30T08:18:43;31.20;79.60
18575;DHT22;9417;16.484;102.872;2023-09-30T08:20:52;31.00;80.70
18575;DHT22;9417;16.484;102.872;2023-09-30T08:23:00;31.00;81.50
18575;DHT22;9417;16.484;102.872;2023-09-30T08:25:09;30.80;82.90
18575;DHT22;9417;16.484;102.872;2023-09-30T08:27:17;30.80;81.40
18575;DHT22;9417;16.484;102.872;2023-09-30T08:29:25;30.90;82.60
18575;DHT22;9417;16.484;102.872;2023-09-30T08:31:33;31.00;80.60
18575;DHT22;9417;16.484;102.872;2023-09-30T08:33:43;31.10;81.30
18575;DHT22;9417;16.484;102.872;2023-09-30T08:35:51;31.20;79.60
18575;DHT22;9417;16.484;102.872;2023-09-30T08:37:59;31.10;80.10
18575;DHT22;9417;16.484;102.872;2023-09-30T08:40:08;31.20;80.10
18575;DHT22;9417;16.484;102.872;2023-09-30T08:42:17;31.30;80.70
18575;DHT22;9417;16.484;102.872;2023-09-30T08:44:26;31.30;79.20
18575;DHT22;9417;16.484;102.872;2023-09-30T08:46:35;31.40;80.20
18575;DHT22;9417;16.484;102.872;2023-09-30T08:48:44;31.40;78.30
18575;DHT22;9417;16.484;102.872;2023-09-30T08:50:53;31.40;79.60
18575;DHT22;9417;16.484;102.872;2023-09-30T08:53:03;31.30;78.80
18575;DHT22;9417;16.484;102.872;2023-09-30T08:55:12;31.30;78.70
18575;DHT22;9417;16.484;102.872;2023-09-30T08:57:20;31.30;79.20
18575;DHT22;9417;16.484;102.872;2023-09-30T08:59:28;31.30;77.80
18575;DHT22;9417;16.484;102.872;2023-09-30T09:01:36;31.20;78.80
18575;DHT22;9417;16.484;102.872;2023-09-30T09:03:47;31.10;79.10
18575;DHT22;9417;16.484;102.872;2023-09-30T09:05:58;30.90;80.00
18575;DHT22;9417;16.484;102.872;2023-09-30T09:08:06;30.70;82.70
18575;DHT22;9417;16.484;102.872;2023-09-30T09:10:14;30.60;81.80
18575;DHT22;9417;16.484;102.872;2023-09-30T09:12:22;30.50;82.30
18575;DHT22;9417;16.484;102.872;2023-09-30T09:14:38;30.50;83.20
18575;DHT22;9417;16.484;102.872;2023-09-30T09:16:52;30.50;83.40
18575;DHT22;9417;16.484;102.872;2023-09-30T09:19:13;30.50;84.70
18575;DHT22;9417;16.484;102.872;2023-09-30T09:21:22;30.60;83.80
18575;DHT22;9417;16.484;102.872;2023-09-30T09:23:40;30.50;83.40
18575;DHT22;9417;16.484;102.872;2023-09-30T09:25:50;30.50;83.70
18575;DHT22;9417;16.484;102.872;2023-09-30T09:27:58;30.40;84.90
18575;DHT22;9417;16.484;102.872;2023-09-30T09:30:16;30.40;85.50
18575;DHT22;9417;16.484;102.872;2023-09-30T09:32:23;30.30;86.70
18575;DHT22;9417;16.484;102.872;2023-09-30T09:34:32;30.20;87.00
18575;DHT22;9417;16.484;102.872;2023-09-30T09:36:41;30.20;86.90
18575;DHT22;9417;16.484;102.872;2023-09-30T09:38:50;30.10;86.30
18575;DHT22;9417;16.484;102.872;2023-09-30T09:41:00;30.00;86.50
18575;DHT22;9417;16.484;102.872;2023-09-30T09:43:10;29.80;86.50
18575;DHT22;9417;16.484;102.872;2023-09-30T09:45:18;29.80;87.10
18575;DHT22;9417;16.484;102.872;2023-09-30T09:47:27;29.70;87.50
18575;DHT22;9417;16.484;102.872;2023-09-30T09:49:38;29.60;88.30
18575;DHT22;9417;16.484;102.872;2023-09-30T09:51:47;29.60;89.20
18575;DHT22;9417;16.484;102.872;2023-09-30T09:53:55;29.50;89.00
18575;DHT22;9417;16.484;102.872;2023-09-30T09:56:03;29.50;88.90
18575;DHT22;9417;16.484;102.872;2023-09-30T09:58:13;29.50;89.50
18575;DHT22;9417;16.484;102.872;2023-09-30T10:00:24;29.50;89.80
18575;DHT22;9417;16.484;102.872;2023-09-30T10:02:31;29.40;91.10
18575;DHT22;9417;16.484;102.872;2023-09-30T10:04:42;29.30;91.50
18575;DHT22;9417;16.484;102.872;2023-09-30T10:06:53;29.30;91.90
18575;DHT22;9417;16.484;102.872;2023-09-30T10:09:02;29.30;91.40
18575;DHT22;9417;16.484;102.872;2023-09-30T10:11:17;29.30;91.90
18575;DHT22;9417;16.484;102.872;2023-09-30T10:13:52;29.30;94.10
18575;DHT22;9417;16.484;102.872;2023-09-30T10:16:00;29.20;92.80
18575;DHT22;9417;16.484;102.872;2023-09-30T10:18:09;29.20;93.50
18575;DHT22;9417;16.484;102.872;2023-09-30T10:20:28;29.20;93.00
18575;DHT22;9417;16.484;102.872;2023-09-30T10:22:34;29.20;95.60
18575;DHT22;9417;16.484;102.872;2023-09-30T10:24:45;29.10;94.20
18575;DHT22;9417;16.484;102.872;2023-09-30T10:29:40;29.10;94.00
18575;DHT22;9417;16.484;102.872;2023-09-30T10:31:51;29.10;91.50
18575;DHT22;9417;16.484;102.872;2023-09-30T10:34:32;29.10;91.80
18575;DHT22;9417;16.484;102.872;2023-09-30T10:36:42;29.10;90.70
18575;DHT22;9417;16.484;102.872;2023-09-30T10:38:49;29.10;91.50
18575;DHT22;9417;16.484;102.872;2023-09-30T10:40:57;29.10;90.90
18575;DHT22;9417;16.484;102.872;2023-09-30T10:43:03;29.10;91.30
18575;DHT22;9417;16.484;102.872;2023-09-30T10:45:44;29.10;90.60
18575;DHT22;9417;16.484;102.872;2023-09-30T10:47:52;29.10;89.10
18575;DHT22;9417;16.484;102.872;2023-09-30T10:50:00;29.10;88.90
18575;DHT22;9417;16.484;102.872;2023-09-30T10:52:11;29.10;88.80
18575;DHT22;9417;16.484;102.872;2023-09-30T10:54:23;29.10;88.80
18575;DHT22;9417;16.484;102.872;2023-09-30T10:56:33;29.00;89.40
18575;DHT22;9417;16.484;102.872;2023-09-30T10:58:42;28.90;89.80
18575;DHT22;9417;16.484;102.872;2023-09-30T11:00:55;28.70;89.30
18575;DHT22;9417;16.484;102.872;2023-09-30T11:03:04;28.70;89.50
18575;DHT22;9417;16.484;102.872;2023-09-30T11:05:13;28.60;89.50
18575;DHT22;9417;16.484;102.872;2023-09-30T11:07:24;28.50;89.70
18575;DHT22;9417;16.484;102.872;2023-09-30T11:09:34;28.40;90.30
18575;DHT22;9417;16.484;102.872;2023-09-30T11:11:43;28.40;90.80
18575;DHT22;9417;16.484;102.872;2023-09-30T11:13:54;28.40;90.20
18575;DHT22;9417;16.484;102.872;2023-09-30T11:16:02;28.30;89.50
18575;DHT22;9417;16.484;102.872;2023-09-30T11:18:16;28.30;88.40
18575;DHT22;9417;16.484;102.872;2023-09-30T11:20:24;28.20;88.40
18575;DHT22;9417;16.484;102.872;2023-09-30T11:22:34;28.10;88.30
18575;DHT22;9417;16.484;102.872;2023-09-30T11:24:42;28.10;87.50
18575;DHT22;9417;16.484;102.872;2023-09-30T11:26:54;28.00;88.20
18575;DHT22;9417;16.484;102.872;2023-09-30T11:29:09;27.90;88.60
18575;DHT22;9417;16.484;102.872;2023-09-30T11:31:18;27.70;91.40
18575;DHT22;9417;16.484;102.872;2023-09-30T11:33:27;27.60;91.70
18575;DHT22;9417;16.484;102.872;2023-09-30T11:35:33;27.40;93.40
18575;DHT22;9417;16.484;102.872;2023-09-30T11:37:44;27.50;94.50
18575;DHT22;9417;16.484;102.872;2023-09-30T11:39:52;27.30;96.10
18575;DHT22;9417;16.484;102.872;2023-09-30T11:42:00;27.30;94.90
18575;DHT22;9417;16.484;102.872;2023-09-30T11:44:08;27.20;94.30
18575;DHT22;9417;16.484;102.872;2023-09-30T11:46:17;27.30;95.70
18575;DHT22;9417;16.484;102.872;2023-09-30T11:48:24;27.30;96.90
18575;DHT22;9417;16.484;102.872;2023-09-30T11:50:47;27.30;97.60
18575;DHT22;9417;16.484;102.872;2023-09-30T11:52:56;27.40;98.60
18575;DHT22;9417;16.484;102.872;2023-09-30T11:55:06;27.40;99.00
18575;DHT22;9417;16.484;102.872;2023-09-30T11:57:15;27.40;99.80
18575;DHT22;9417;16.484;102.872;2023-09-30T11:59:23;27.30;99.90
18575;DHT22;9417;16.484;102.872;2023-09-30T12:01:31;27.20;99.90
18575;DHT22;9417;16.484;102.872;2023-09-30T12:03:39;27.10;99.90
18575;DHT22;9417;16.484;102.872;2023-09-30T12:05:48;27.00;99.90
18575;DHT22;9417;16.484;102.872;2023-09-30T12:07:58;27.10;99.90
18575;DHT22;9417;16.484;102.872;2023-09-30T12:10:06;27.10;99.90
18575;DHT22;9417;16.484;102.872;2023-09-30T12:12:14;27.20;99.90
18575;DHT22;9417;16.484;102.872;2023-09-30T12:14:22;27.20;99.90
18575;DHT22;9417;16.484;102.872;2023-09-30T12:16:31;27.20;99.90
18575;DHT22;9417;16.484;102.872;2023-09-30T12:18:37;27.30;99.90
18575;DHT22;9417;16.484;102.872;2023-09-30T12:20:46;27.30;99.90
18575;DHT22;9417;16.484;102.872;2023-09-30T12:22:54;27.30;99.90
18575;DHT22;9417;16.484;102.872;2023-09-30T12:25:04;27.30;99.90
18575;DHT22;9417;16.484;102.872;2023-09-30T12:27:13;27.30;99.90
18575;DHT22;9417;16.484;102.872;2023-09-30T12:29:23;27.30;99.90
18575;DHT22;9417;16.484;102.872;2023-09-30T12:31:30;27.20;99.90
18575;DHT22;9417;16.484;102.872;2023-09-30T12:33:55;27.20;99.90
18575;DHT22;9417;16.484;102.872;2023-09-30T12:36:05;27.20;99.90
18575;DHT22;9417;16.484;102.872;2023-09-30T12:38:13;27.20;99.90
18575;DHT22;9417;16.484;102.872;2023-09-30T12:40:24;27.10;99.90
18575;DHT22;9417;16.484;102.872;2023-09-30T12:42:32;27.00;99.90
18575;DHT22;9417;16.484;102.872;2023-09-30T12:44:40;27.00;99.90
18575;DHT22;9417;16.484;102.872;2023-09-30T12:46:48;27.00;99.90
18575;DHT22;9417;16.484;102.872;2023-09-30T12:48:55;27.10;99.90
18575;DHT22;9417;16.484;102.872;2023-09-30T12:51:04;27.10;99.90
18575;DHT22;9417;16.484;102.872;2023-09-30T12:53:12;27.10;99.90
18575;DHT22;9417;16.484;102.872;2023-09-30T12:55:20;27.00;99.90
18575;DHT22;9417;16.484;102.872;2023-09-30T12:57:29;27.00;99.90
18575;DHT22;9417;16.484;102.872;2023-09-30T12:59:37;26.90;99.90
18575;DHT22;9417;16.484;102.872;2023-09-30T13:01:44;26.90;99.90
18575;DHT22;9417;16.484;102.872;2023-09-30T13:03:53;26.80;99.90
18575;DHT22;9417;16.484;102.872;2023-09-30T13:06:01;26.80;99.90
18575;DHT22;9417;16.484;102.872;2023-09-30T13:08:10;26.80;99.90
18575;DHT22;9417;16.484;102.872;2023-09-30T13:10:18;26.90;99.90
18575;DHT22;9417;16.484;102.872;2023-09-30T13:12:28;26.90;99.90
18575;DHT22;9417;16.484;102.872;2023-09-30T13:14:35;26.90;99.90
18575;DHT22;9417;16.484;102.872;2023-09-30T13:16:45;26.90;99.90
18575;DHT22;9417;16.484;102.872;2023-09-30T13:18:53;26.80;99.90
18575;DHT22;9417;16.484;102.872;2023-09-30T13:21:02;26.80;99.90
18575;DHT22;9417;16.484;102.872;2023-09-30T13:23:11;26.80;99.90
18575;DHT22;9417;16.484;102.872;2023-09-30T13:25:20;26.80;99.90